AirNav   Textron
 
 487 users online  

KZER Schuylkill County/Joe Zerbey Airport
Pottsville, Pennsylvania, USA

GOING TO POTTSVILLE?


FAA INFORMATION EFFECTIVE 07 DECEMBER 2017

Location

FAA Identifier: ZER
Lat/Long: 40-42-24.3600N / 076-22-22.7500W
40-42.406000N / 076-22.379167W
40.7067667 / -76.3729861
(estimated)
Elevation: 1729.4 ft. / 527.1 m (surveyed)
Variation: 12W (2000)
From city: 8 miles W of POTTSVILLE, PA
Time zone: UTC -5 (UTC -4 during Daylight Saving Time)
Zip code: 17921

Airport Operations

Airport use: Open to the public
Activation date: 10/1959
Control tower: no
ARTCC: NEW YORK CENTER
FSS: WILLIAMSPORT FLIGHT SERVICE STATION
NOTAMs facility: IPT (NOTAM-D service available)
Attendance: MON-FRI 0730-1700, ALL SAT - SUN ON CALL
FOR SVC AFTER HRS 570-617-6002.
Pattern altitude: 2500.4 ft. MSL
Wind indicator: lighted
Segmented circle: no
Lights: ACTIVATE REIL RY 11/29; MIRL RY 11/29 - CTAF.
Beacon: white-green (lighted land airport)
Operates sunset to sunrise.

Airport Communications

CTAF/UNICOM: 123.075
WX AWOS-3: 127.57 (570-544-2778)
HARRISBURG APPROACH: 118.25
HARRISBURG DEPARTURE: 118.25
WX AWOS-3 at N79 (11 nm NW): 119.175 (570-672-0389)
WX ASOS at MUI (19 nm SW): 124.175 (717-861-6493)
WX AWOS-3 at 79PN (19 nm NW): 118.075 (570-271-8192)
  • RAVINE RCO 122.1R 114.6T (WILLIAMSPORT RADIO)

Nearby radio navigation aids

VOR radial/distance  VOR name  Freq  Var
RAVr059/13.8RAVINE VORTAC114.6011W
HZLr224/(19.6)HAZLETON VOR109.4009W
MIPr154/23.2MILTON VORTAC109.2009W
SEGr110/23.8SELINSGROVE VOR/DME110.4008W
ETXr293/32.3EAST TEXAS VOR/DME110.2009W
LRPr003/35.4LANCASTER VOR/DME117.3009W
HARr063/40.0HARRISBURG VORTAC112.5010W

 
NDB name  Hdg/Dist  Freq  Var  ID
BELLGROVE037/18.232810WBZJ -... --.. .---

Airport Services

Fuel available: 100LL JET-A
AVGAS SELF SERVE WITH CREDIT CARD.
JET-A SELF-SERVE WITH CREDIT CARD.
Parking: hangars and tiedowns
Airframe service: MINOR
Powerplant service: MINOR
Bottled oxygen: NONE
Bulk oxygen: NONE

Runway Information

Runway 11/29

Dimensions: 4599 x 75 ft. / 1402 x 23 m
Surface: asphalt, in good condition
Weight bearing capacity: 
Single wheel: 21.0
Runway edge lights: medium intensity
RUNWAY 11  RUNWAY 29
Latitude: 40-42.385858N40-42.282017N
Longitude: 076-23.021483W076-22.035672W
Elevation: 1729.4 ft.1706.5 ft.
Gradient: 0.5% DOWN0.5% UP
Traffic pattern: leftleft
Runway heading: 110 magnetic, 098 true290 magnetic, 278 true
Markings: nonprecision, in good conditionnonprecision, in good condition
Visual slope indicator: 2-light PAPI on left (3.00 degrees glide path)
PAPI ON CONTINUOUSLY.
2-light PAPI on left (3.00 degrees glide path)
PAPI ON CONTINUOUSLY.
Runway end identifier lights: yesyes
Touchdown point: yes, no lightsyes, no lights
Obstructions: 3 ft. brush, 242 ft. from runway, 157 ft. right of centerline, 12:1 slope to clear3 ft. brush, 206 ft. from runway, 105 ft. right of centerline, 2:1 slope to clear

Runway 4/22

Dimensions: 2523 x 140 ft. / 769 x 43 m
Surface: turf, in good condition
Runway edge markings: RY 04/22 EDGE & DSPLCD THLD MKD WITH ORANGE CONES.
Operational restrictions: NOT MAINTAINED WINTER MONTHS.
RUNWAY 4  RUNWAY 22
Latitude: 40-42.360000N40-42.714500N
Longitude: 076-22.249333W076-21.964667W
Elevation: 1707.1 ft.1714.4 ft.
Gradient: 0.383% UP0.383% DOWN
Traffic pattern: leftleft
Runway heading: 043 magnetic, 031 true223 magnetic, 211 true
Displaced threshold: no200 ft.
Markings: none, in poor conditionnone, in poor condition
Touchdown point: yes, no lightsyes, no lights
Obstructions: none27 ft. trees, 98 ft. from runway, 232 ft. left of centerline, 3:1 slope to clear
APCH RATIO 10:1 TO DSPLCD THLD.

Airport Ownership and Management from official FAA records

Ownership: Publicly-owned
Owner: SCHUYLKILL COUNTY A/P AUTH
240 AIRPORT ROAD
POTTSVILLE, PA 17901
Phone 570-544-6002
Manager: BILL WILLARD
240 AIRPORT ROAD
POTTSVILLE, PA 17901
Phone 570-544-6002
570-617-6002

Airport Operational Statistics

Aircraft based on the field: 31
Single engine airplanes: 26
Multi engine airplanes: 4
Jet airplanes: 1
    
Aircraft operations: avg 77/day *
45% local general aviation
31% transient general aviation
22% military
2% air taxi
* for 12-month period ending 11 August 2017

Additional Remarks

DEER ON & INVOF ARPT.
FOR CD CTC MDT APCH AT 800-932-0712.
GPU AVAILABLE FOR AC/DC POWER.

Instrument Procedures

NOTE: All procedures below are presented as PDF files. If you need a reader for these files, you should download the free Adobe Reader.

NOT FOR NAVIGATION. Please procure official charts for flight.
FAA instrument procedures published for use between 7 December 2017 at 0901Z and 4 January 2018 at 0900Z.

 
IAPs - Instrument Approach Procedures
RNAV (GPS) RWY 11 **CHANGED**   download (228KB)
RNAV (GPS) RWY 29 **CHANGED**   download (223KB)
VOR-A **NEW**   download (159KB)
NOTE: Special Take-Off Minimums/Departure Procedures apply   download (149KB)

Other nearby airports with instrument procedures:

N79 - Northumberland County Airport (11 nm NW)
74N - Bendigo Airport (12 nm SW)
N13 - Bloomsburg Municipal Airport (18 nm N)
KMUI - Muir Army Airfield (Fort Indiantown Gap) (19 nm SW)
8N8 - Danville Airport (19 nm NW)
 
Loc | Ops | Rwys | IFR | FBO | Links
Com | Nav | Svcs | Stats | Notes


 
Area around KZER (Schuylkill County/Joe Zerbey Airport)
 
Road maps at: MapQuest Bing Google
 
Aerial photo
WARNING: Photo may not be current or correct
Aerial photo of KZER (Schuylkill County/Joe Zerbey Airport)
Photo by David Newcomer
Photo taken 03-Feb-2017
looking northeast from 4,000 altitude.

Do you have a better or more recent aerial photo of Schuylkill County/Joe Zerbey Airport that you would like to share? If so, please send us your photo.

 
Sectional chart

 
Airport distance calculator
Flying to Schuylkill County/Joe Zerbey Airport? Find the distance to fly.

From to KZER

Sunrise and sunset
Times for 11-Dec-2017
 Local
(UTC-5)
 Zulu
(UTC)
Morning civil twilight06:5011:50
Sunrise07:2012:20
Sunset16:3721:37
Evening civil twilight17:0822:08

Current date and time
Zulu (UTC)  11-Dec-2017 06:53:05
Local (UTC-5)  11-Dec-2017 01:53:05
 
METAR
KMUI 
20nm SW 
110556Z AUTO 00000KT 10SM FEW055 00/M05 A2998 RMK AO2 SLP160 T10051051 10002 21006 58008 FZRANO $
KSEG 
23nm W 
110553Z AUTO 18004KT 10SM OVC070 00/M06 A2998 RMK AO2 SLP156 T00001061 10006 20000 58007
KHZL 
24nm NE 
110635Z AUTO 00000KT 10SM OVC070 M02/M07 A2993 RMK AO2
KRDG 
28nm SE 
110554Z AUTO 26005KT 10SM BKN065 OVC090 01/M05 A3000 RMK AO2 SLP165 T00111050 10011 20006 58002
KMDT 
35nm SW 
110556Z 20007KT 10SM OVC080 02/M05 A2999 RMK AO2 SLP157 T00171050 10028 20017 58008
KLNS 
36nm S 
110553Z AUTO 19006KT 10SM BKN090 OVC100 01/M06 A3000 RMK AO2 SNB0459E13 SLP163 P0000 60000 T00111056 10017 20011 58005 $
KCXY 
37nm SW 
110556Z AUTO 00000KT 10SM OVC075 02/M08 A2999 RMK AO2 SLP159 T00221083 10028 20011 58010
TAF
NOTAMs
Click for the latest NOTAMs
NOTAMs are issued by the DoD/FAA and will open in a separate window not controlled by AirNav.

 

 
 

FBO, Fuel Providers, and Aircraft Ground Support

  
 Business Name 
 
 Contact 
 
 Services / Description 
 
Fuel Prices
 
Comments
  
Schuylkill County Airport 570-544-6002
no information available

If you are affiliated with Schuylkill County Airport and would like to show here your services, contact info, web link, logo, and more, click here
100LL Jet A
FS $5.21 $4.21 
SS $5.11 $4.11 
 Updated 05-Dec-2017
 
   1 read write
FS=Full service
SS=Self service
Update Fuel Prices
 

Would you like to see your business listed on this page?

 If your business provides an interesting product or service to pilots, flight crews, aircraft, or users of the Schuylkill County/Joe Zerbey Airport, you should consider listing it here.  To start the listing process, click on the button below
 
Add a business
 

Other Pages about Schuylkill County/Joe Zerbey Airport

Update a link
 
Copyright © AirNav, LLC. All rights reserved. Privacy Policy  Contact